sensor_id;sensor_type;location;lat;lon;timestamp;pressure;altitude;pressure_sealevel;temperature
74485;BMP280;62942;52.462;10.846;2023-04-23T00:00:35;99850;;;
74485;BMP280;62942;52.462;10.846;2023-04-23T00:01:35;99850;;;
74485;BMP280;62942;52.462;10.846;2023-04-23T00:02:35;99850;;;
74485;BMP280;62942;52.462;10.846;2023-04-23T00:03:35;99850;;;
74485;BMP280;62942;52.462;10.846;2023-04-23T00:04:47;99860;;;
74485;BMP280;62942;52.462;10.846;2023-04-23T00:05:55;99860;;;
74485;BMP280;62942;52.462;10.846;2023-04-23T00:06:55;99860;;;
74485;BMP280;62942;52.462;10.846;2023-04-23T00:07:55;99860;;;
74485;BMP280;62942;52.462;10.846;2023-04-23T00:08:55;99860;;;
74485;BMP280;62942;52.462;10.846;2023-04-23T00:10:05;99860;;;
74485;BMP280;62942;52.462;10.846;2023-04-23T00:11:06;99870;;;
74485;BMP280;62942;52.462;10.846;2023-04-23T00:12:15;99870;;;
74485;BMP280;62942;52.462;10.846;2023-04-23T00:13:15;99860;;;
74485;BMP280;62942;52.462;10.846;2023-04-23T00:14:25;99870;;;
74485;BMP280;62942;52.462;10.846;2023-04-23T00:15:35;99870;;;
74485;BMP280;62942;52.462;10.846;2023-04-23T00:16:45;99860;;;
74485;BMP280;62942;52.462;10.846;2023-04-23T00:17:55;99860;;;
74485;BMP280;62942;52.462;10.846;2023-04-23T00:18:55;99850;;;
74485;BMP280;62942;52.462;10.846;2023-04-23T00:20:05;99850;;;
74485;BMP280;62942;52.462;10.846;2023-04-23T00:21:05;99860;;;
74485;BMP280;62942;52.462;10.846;2023-04-23T00:22:15;99860;;;
74485;BMP280;62942;52.462;10.846;2023-04-23T00:23:25;99870;;;
74485;BMP280;62942;52.462;10.846;2023-04-23T00:24:35;99870;;;
74485;BMP280;62942;52.462;10.846;2023-04-23T00:25:35;99860;;;
74485;BMP280;62942;52.462;10.846;2023-04-23T00:26:35;99870;;;
74485;BMP280;62942;52.462;10.846;2023-04-23T00:27:45;99870;;;
74485;BMP280;62942;52.462;10.846;2023-04-23T00:28:55;99860;;;
74485;BMP280;62942;52.462;10.846;2023-04-23T00:29:55;99860;;;
74485;BMP280;62942;52.462;10.846;2023-04-23T00:31:05;99860;;;
74485;BMP280;62942;52.462;10.846;2023-04-23T00:32:15;99860;;;
74485;BMP280;62942;52.462;10.846;2023-04-23T00:33:15;99860;;;
74485;BMP280;62942;52.462;10.846;2023-04-23T00:34:25;99860;;;
74485;BMP280;62942;52.462;10.846;2023-04-23T00:35:35;99860;;;
74485;BMP280;62942;52.462;10.846;2023-04-23T00:36:45;99860;;;
74485;BMP280;62942;52.462;10.846;2023-04-23T00:37:45;99860;;;
74485;BMP280;62942;52.462;10.846;2023-04-23T00:38:55;99860;;;
74485;BMP280;62942;52.462;10.846;2023-04-23T00:40:05;99860;;;
74485;BMP280;62942;52.462;10.846;2023-04-23T00:41:15;99860;;;
74485;BMP280;62942;52.462;10.846;2023-04-23T00:42:15;99870;;;
74485;BMP280;62942;52.462;10.846;2023-04-23T00:43:25;99860;;;
74485;BMP280;62942;52.462;10.846;2023-04-23T00:44:35;99870;;;
74485;BMP280;62942;52.462;10.846;2023-04-23T00:45:35;99860;;;
74485;BMP280;62942;52.462;10.846;2023-04-23T00:46:45;99860;;;
74485;BMP280;62942;52.462;10.846;2023-04-23T00:47:45;99860;;;
74485;BMP280;62942;52.462;10.846;2023-04-23T00:48:55;99850;;;
74485;BMP280;62942;52.462;10.846;2023-04-23T00:50:05;99850;;;
74485;BMP280;62942;52.462;10.846;2023-04-23T00:51:15;99850;;;
74485;BMP280;62942;52.462;10.846;2023-04-23T00:52:25;99870;;;
74485;BMP280;62942;52.462;10.846;2023-04-23T00:53:35;99860;;;
74485;BMP280;62942;52.462;10.846;2023-04-23T00:54:35;99870;;;
74485;BMP280;62942;52.462;10.846;2023-04-23T00:55:45;99860;;;
74485;BMP280;62942;52.462;10.846;2023-04-23T00:56:45;99860;;;
74485;BMP280;62942;52.462;10.846;2023-04-23T00:57:45;99870;;;
74485;BMP280;62942;52.462;10.846;2023-04-23T00:58:55;99860;;;
74485;BMP280;62942;52.462;10.846;2023-04-23T00:59:55;99860;;;
74485;BMP280;62942;52.462;10.846;2023-04-23T01:01:05;99870;;;
74485;BMP280;62942;52.462;10.846;2023-04-23T01:02:15;99870;;;
74485;BMP280;62942;52.462;10.846;2023-04-23T01:03:15;99860;;;
74485;BMP280;62942;52.462;10.846;2023-04-23T01:04:15;99860;;;
74485;BMP280;62942;52.462;10.846;2023-04-23T01:05:25;99860;;;
74485;BMP280;62942;52.462;10.846;2023-04-23T01:06:25;99860;;;
74485;BMP280;62942;52.462;10.846;2023-04-23T01:07:25;99860;;;
74485;BMP280;62942;52.462;10.846;2023-04-23T01:08:35;99870;;;
74485;BMP280;62942;52.462;10.846;2023-04-23T01:09:45;99870;;;
74485;BMP280;62942;52.462;10.846;2023-04-23T01:10:45;99870;;;
74485;BMP280;62942;52.462;10.846;2023-04-23T01:11:55;99870;;;
74485;BMP280;62942;52.462;10.846;2023-04-23T01:12:55;99870;;;
74485;BMP280;62942;52.462;10.846;2023-04-23T01:13:55;99870;;;
74485;BMP280;62942;52.462;10.846;2023-04-23T01:15:05;99870;;;
74485;BMP280;62942;52.462;10.846;2023-04-23T01:16:15;99860;;;
74485;BMP280;62942;52.462;10.846;2023-04-23T01:17:15;99860;;;
74485;BMP280;62942;52.462;10.846;2023-04-23T01:18:25;99860;;;
74485;BMP280;62942;52.462;10.846;2023-04-23T01:19:35;99870;;;
74485;BMP280;62942;52.462;10.846;2023-04-23T01:20:35;99860;;;
74485;BMP280;62942;52.462;10.846;2023-04-23T01:21:45;99860;;;
74485;BMP280;62942;52.462;10.846;2023-04-23T01:22:45;99860;;;
74485;BMP280;62942;52.462;10.846;2023-04-23T01:23:55;99860;;;
74485;BMP280;62942;52.462;10.846;2023-04-23T01:25:05;99860;;;
74485;BMP280;62942;52.462;10.846;2023-04-23T01:26:15;99860;;;
74485;BMP280;62942;52.462;10.846;2023-04-23T01:27:25;99860;;;
74485;BMP280;62942;52.462;10.846;2023-04-23T01:28:35;99850;;;
74485;BMP280;62942;52.462;10.846;2023-04-23T01:29:45;99860;;;
74485;BMP280;62942;52.462;10.846;2023-04-23T01:30:45;99860;;;
74485;BMP280;62942;52.462;10.846;2023-04-23T01:31:55;99860;;;
74485;BMP280;62942;52.462;10.846;2023-04-23T01:33:05;99860;;;
74485;BMP280;62942;52.462;10.846;2023-04-23T01:34:15;99860;;;
74485;BMP280;62942;52.462;10.846;2023-04-23T01:35:25;99860;;;
74485;BMP280;62942;52.462;10.846;2023-04-23T01:36:35;99850;;;
74485;BMP280;62942;52.462;10.846;2023-04-23T01:37:45;99860;;;
74485;BMP280;62942;52.462;10.846;2023-04-23T01:38:45;99870;;;
74485;BMP280;62942;52.462;10.846;2023-04-23T01:39:45;99860;;;
74485;BMP280;62942;52.462;10.846;2023-04-23T01:40:55;99870;;;
74485;BMP280;62942;52.462;10.846;2023-04-23T01:41:55;99850;;;
74485;BMP280;62942;52.462;10.846;2023-04-23T01:43:05;99840;;;
74485;BMP280;62942;52.462;10.846;2023-04-23T01:44:05;99850;;;
74485;BMP280;62942;52.462;10.846;2023-04-23T01:45:15;99860;;;
74485;BMP280;62942;52.462;10.846;2023-04-23T01:46:25;99860;;;
74485;BMP280;62942;52.462;10.846;2023-04-23T01:47:35;99860;;;
74485;BMP280;62942;52.462;10.846;2023-04-23T01:48:45;99860;;;
74485;BMP280;62942;52.462;10.846;2023-04-23T01:49:55;99850;;;
74485;BMP280;62942;52.462;10.846;2023-04-23T01:51:05;99850;;;
74485;BMP280;62942;52.462;10.846;2023-04-23T01:52:15;99840;;;
74485;BMP280;62942;52.462;10.846;2023-04-23T01:53:15;99840;;;
74485;BMP280;62942;52.462;10.846;2023-04-23T01:54:25;99850;;;
74485;BMP280;62942;52.462;10.846;2023-04-23T01:55:25;99850;;;
74485;BMP280;62942;52.462;10.846;2023-04-23T01:56:26;99850;;;
74485;BMP280;62942;52.462;10.846;2023-04-23T01:57:35;99860;;;
74485;BMP280;62942;52.462;10.846;2023-04-23T01:58:35;99850;;;
74485;BMP280;62942;52.462;10.846;2023-04-23T01:59:45;99850;;;
74485;BMP280;62942;52.462;10.846;2023-04-23T02:00:45;99850;;;
74485;BMP280;62942;52.462;10.846;2023-04-23T02:01:55;99850;;;
74485;BMP280;62942;52.462;10.846;2023-04-23T02:02:55;99850;;;
74485;BMP280;62942;52.462;10.846;2023-04-23T02:03:55;99850;;;
74485;BMP280;62942;52.462;10.846;2023-04-23T02:05:05;99850;;;
74485;BMP280;62942;52.462;10.846;2023-04-23T02:06:15;99850;;;
74485;BMP280;62942;52.462;10.846;2023-04-23T02:07:25;99850;;;
74485;BMP280;62942;52.462;10.846;2023-04-23T02:08:35;99850;;;
74485;BMP280;62942;52.462;10.846;2023-04-23T02:09:45;99850;;;
74485;BMP280;62942;52.462;10.846;2023-04-23T02:10:45;99860;;;
74485;BMP280;62942;52.462;10.846;2023-04-23T02:11:55;99860;;;
74485;BMP280;62942;52.462;10.846;2023-04-23T02:13:05;99860;;;
74485;BMP280;62942;52.462;10.846;2023-04-23T02:14:05;99860;;;
74485;BMP280;62942;52.462;10.846;2023-04-23T02:15:15;99850;;;
74485;BMP280;62942;52.462;10.846;2023-04-23T02:16:15;99850;;;
74485;BMP280;62942;52.462;10.846;2023-04-23T02:17:25;99860;;;
74485;BMP280;62942;52.462;10.846;2023-04-23T02:18:35;99850;;;
74485;BMP280;62942;52.462;10.846;2023-04-23T02:19:45;99860;;;
74485;BMP280;62942;52.462;10.846;2023-04-23T02:20:55;99850;;;
74485;BMP280;62942;52.462;10.846;2023-04-23T02:22:05;99860;;;
74485;BMP280;62942;52.462;10.846;2023-04-23T02:23:15;99860;;;
74485;BMP280;62942;52.462;10.846;2023-04-23T02:24:15;99860;;;
74485;BMP280;62942;52.462;10.846;2023-04-23T02:25:25;99860;;;
74485;BMP280;62942;52.462;10.846;2023-04-23T02:26:25;99850;;;
74485;BMP280;62942;52.462;10.846;2023-04-23T02:27:25;99860;;;
74485;BMP280;62942;52.462;10.846;2023-04-23T02:28:35;99860;;;
74485;BMP280;62942;52.462;10.846;2023-04-23T02:29:35;99850;;;
74485;BMP280;62942;52.462;10.846;2023-04-23T02:30:35;99860;;;
74485;BMP280;62942;52.462;10.846;2023-04-23T02:31:45;99860;;;
74485;BMP280;62942;52.462;10.846;2023-04-23T02:32:45;99860;;;
74485;BMP280;62942;52.462;10.846;2023-04-23T02:33:55;99860;;;
74485;BMP280;62942;52.462;10.846;2023-04-23T02:35:05;99860;;;
74485;BMP280;62942;52.462;10.846;2023-04-23T02:36:05;99860;;;
74485;BMP280;62942;52.462;10.846;2023-04-23T02:37:15;99850;;;
74485;BMP280;62942;52.462;10.846;2023-04-23T02:38:15;99860;;;
74485;BMP280;62942;52.462;10.846;2023-04-23T02:39:15;99860;;;
74485;BMP280;62942;52.462;10.846;2023-04-23T02:40:25;99860;;;
74485;BMP280;62942;52.462;10.846;2023-04-23T02:41:35;99860;;;
74485;BMP280;62942;52.462;10.846;2023-04-23T02:42:35;99860;;;
74485;BMP280;62942;52.462;10.846;2023-04-23T02:43:45;99860;;;
74485;BMP280;62942;52.462;10.846;2023-04-23T02:44:45;99860;;;
74485;BMP280;62942;52.462;10.846;2023-04-23T02:45:55;99860;;;
74485;BMP280;62942;52.462;10.846;2023-04-23T02:46:55;99850;;;
74485;BMP280;62942;52.462;10.846;2023-04-23T02:48:05;99860;;;
74485;BMP280;62942;52.462;10.846;2023-04-23T02:49:15;99860;;;
74485;BMP280;62942;52.462;10.846;2023-04-23T02:50:25;99860;;;
74485;BMP280;62942;52.462;10.846;2023-04-23T02:51:35;99860;;;
74485;BMP280;62942;52.462;10.846;2023-04-23T02:52:35;99850;;;
74485;BMP280;62942;52.462;10.846;2023-04-23T02:53:35;99850;;;
74485;BMP280;62942;52.462;10.846;2023-04-23T02:54:45;99860;;;
74485;BMP280;62942;52.462;10.846;2023-04-23T02:55:45;99860;;;
74485;BMP280;62942;52.462;10.846;2023-04-23T02:56:55;99860;;;
74485;BMP280;62942;52.462;10.846;2023-04-23T02:58:05;99860;;;
74485;BMP280;62942;52.462;10.846;2023-04-23T02:59:05;99860;;;
74485;BMP280;62942;52.462;10.846;2023-04-23T03:00:15;99860;;;
74485;BMP280;62942;52.462;10.846;2023-04-23T03:01:25;99850;;;
74485;BMP280;62942;52.462;10.846;2023-04-23T03:02:35;99860;;;
74485;BMP280;62942;52.462;10.846;2023-04-23T03:03:45;99860;;;
74485;BMP280;62942;52.462;10.846;2023-04-23T03:04:45;99860;;;
74485;BMP280;62942;52.462;10.846;2023-04-23T03:05:55;99860;;;
74485;BMP280;62942;52.462;10.846;2023-04-23T03:06:55;99860;;;
74485;BMP280;62942;52.462;10.846;2023-04-23T03:08:05;99860;;;
74485;BMP280;62942;52.462;10.846;2023-04-23T03:09:15;99870;;;
74485;BMP280;62942;52.462;10.846;2023-04-23T03:10:15;99870;;;
74485;BMP280;62942;52.462;10.846;2023-04-23T03:11:15;99870;;;
74485;BMP280;62942;52.462;10.846;2023-04-23T03:12:25;99860;;;
74485;BMP280;62942;52.462;10.846;2023-04-23T03:13:35;99870;;;
74485;BMP280;62942;52.462;10.846;2023-04-23T03:14:45;99870;;;
74485;BMP280;62942;52.462;10.846;2023-04-23T03:15:55;99870;;;
74485;BMP280;62942;52.462;10.846;2023-04-23T03:17:05;99870;;;
74485;BMP280;62942;52.462;10.846;2023-04-23T03:18:05;99870;;;
74485;BMP280;62942;52.462;10.846;2023-04-23T03:19:15;99870;;;
74485;BMP280;62942;52.462;10.846;2023-04-23T03:20:15;99870;;;
74485;BMP280;62942;52.462;10.846;2023-04-23T03:21:25;99870;;;
74485;BMP280;62942;52.462;10.846;2023-04-23T03:22:25;99860;;;
74485;BMP280;62942;52.462;10.846;2023-04-23T03:23:35;99870;;;
74485;BMP280;62942;52.462;10.846;2023-04-23T03:24:35;99870;;;
74485;BMP280;62942;52.462;10.846;2023-04-23T03:25:45;99870;;;
74485;BMP280;62942;52.462;10.846;2023-04-23T03:26:45;99870;;;
74485;BMP280;62942;52.462;10.846;2023-04-23T03:27:55;99870;;;
74485;BMP280;62942;52.462;10.846;2023-04-23T03:29:05;99860;;;
74485;BMP280;62942;52.462;10.846;2023-04-23T03:30:15;99870;;;
74485;BMP280;62942;52.462;10.846;2023-04-23T03:31:15;99870;;;
74485;BMP280;62942;52.462;10.846;2023-04-23T03:32:25;99870;;;
74485;BMP280;62942;52.462;10.846;2023-04-23T03:33:25;99870;;;
74485;BMP280;62942;52.462;10.846;2023-04-23T03:34:25;99870;;;
74485;BMP280;62942;52.462;10.846;2023-04-23T03:35:35;99870;;;
74485;BMP280;62942;52.462;10.846;2023-04-23T03:36:45;99880;;;
74485;BMP280;62942;52.462;10.846;2023-04-23T03:37:45;99880;;;
74485;BMP280;62942;52.462;10.846;2023-04-23T03:38:55;99880;;;
74485;BMP280;62942;52.462;10.846;2023-04-23T03:40:05;99890;;;
74485;BMP280;62942;52.462;10.846;2023-04-23T03:41:15;99880;;;
74485;BMP280;62942;52.462;10.846;2023-04-23T03:42:25;99880;;;
74485;BMP280;62942;52.462;10.846;2023-04-23T03:43:25;99880;;;
74485;BMP280;62942;52.462;10.846;2023-04-23T03:44:35;99890;;;
74485;BMP280;62942;52.462;10.846;2023-04-23T03:45:45;99890;;;
74485;BMP280;62942;52.462;10.846;2023-04-23T03:46:45;99890;;;
74485;BMP280;62942;52.462;10.846;2023-04-23T03:47:55;99890;;;
74485;BMP280;62942;52.462;10.846;2023-04-23T03:49:06;99890;;;
74485;BMP280;62942;52.462;10.846;2023-04-23T03:50:15;99890;;;
74485;BMP280;62942;52.462;10.846;2023-04-23T03:51:25;99880;;;
74485;BMP280;62942;52.462;10.846;2023-04-23T03:52:35;99890;;;
74485;BMP280;62942;52.462;10.846;2023-04-23T03:53:35;99890;;;
74485;BMP280;62942;52.462;10.846;2023-04-23T03:54:45;99880;;;
74485;BMP280;62942;52.462;10.846;2023-04-23T03:55:55;99890;;;
74485;BMP280;62942;52.462;10.846;2023-04-23T03:57:05;99890;;;
74485;BMP280;62942;52.462;10.846;2023-04-23T03:58:15;99890;;;
74485;BMP280;62942;52.462;10.846;2023-04-23T03:59:25;99890;;;
74485;BMP280;62942;52.462;10.846;2023-04-23T04:00:25;99890;;;
74485;BMP280;62942;52.462;10.846;2023-04-23T04:01:35;99890;;;
74485;BMP280;62942;52.462;10.846;2023-04-23T04:02:35;99890;;;
74485;BMP280;62942;52.462;10.846;2023-04-23T04:03:45;99890;;;
74485;BMP280;62942;52.462;10.846;2023-04-23T04:04:55;99890;;;
74485;BMP280;62942;52.462;10.846;2023-04-23T04:06:05;99890;;;
74485;BMP280;62942;52.462;10.846;2023-04-23T04:07:05;99900;;;
74485;BMP280;62942;52.462;10.846;2023-04-23T04:08:05;99890;;;
74485;BMP280;62942;52.462;10.846;2023-04-23T04:09:15;99900;;;
74485;BMP280;62942;52.462;10.846;2023-04-23T04:10:15;99900;;;
74485;BMP280;62942;52.462;10.846;2023-04-23T04:11:15;99900;;;
74485;BMP280;62942;52.462;10.846;2023-04-23T04:12:25;99900;;;
74485;BMP280;62942;52.462;10.846;2023-04-23T04:13:35;99910;;;
74485;BMP280;62942;52.462;10.846;2023-04-23T04:14:35;99910;;;
74485;BMP280;62942;52.462;10.846;2023-04-23T04:15:45;99900;;;
74485;BMP280;62942;52.462;10.846;2023-04-23T04:16:45;99910;;;
74485;BMP280;62942;52.462;10.846;2023-04-23T04:17:55;99900;;;
74485;BMP280;62942;52.462;10.846;2023-04-23T04:19:05;99900;;;
74485;BMP280;62942;52.462;10.846;2023-04-23T04:20:15;99900;;;
74485;BMP280;62942;52.462;10.846;2023-04-23T04:21:25;99900;;;
74485;BMP280;62942;52.462;10.846;2023-04-23T04:22:25;99910;;;
74485;BMP280;62942;52.462;10.846;2023-04-23T04:23:35;99910;;;
74485;BMP280;62942;52.462;10.846;2023-04-23T04:24:35;99900;;;
74485;BMP280;62942;52.462;10.846;2023-04-23T04:25:35;99900;;;
74485;BMP280;62942;52.462;10.846;2023-04-23T04:26:45;99900;;;
74485;BMP280;62942;52.462;10.846;2023-04-23T04:27:55;99900;;;
74485;BMP280;62942;52.462;10.846;2023-04-23T04:29:05;99900;;;
74485;BMP280;62942;52.462;10.846;2023-04-23T04:30:15;99900;;;
74485;BMP280;62942;52.462;10.846;2023-04-23T04:31:15;99910;;;
74485;BMP280;62942;52.462;10.846;2023-04-23T04:32:25;99910;;;
74485;BMP280;62942;52.462;10.846;2023-04-23T04:33:35;99920;;;
74485;BMP280;62942;52.462;10.846;2023-04-23T04:34:45;99920;;;
74485;BMP280;62942;52.462;10.846;2023-04-23T04:35:56;99920;;;
74485;BMP280;62942;52.462;10.846;2023-04-23T04:37:05;99920;;;
74485;BMP280;62942;52.462;10.846;2023-04-23T04:38:15;99930;;;
74485;BMP280;62942;52.462;10.846;2023-04-23T04:39:15;99920;;;
74485;BMP280;62942;52.462;10.846;2023-04-23T04:40:25;99920;;;
74485;BMP280;62942;52.462;10.846;2023-04-23T04:41:25;99920;;;
74485;BMP280;62942;52.462;10.846;2023-04-23T04:42:34;99920;;;
74485;BMP280;62942;52.462;10.846;2023-04-23T04:43:35;99930;;;
74485;BMP280;62942;52.462;10.846;2023-04-23T04:44:45;99930;;;
74485;BMP280;62942;52.462;10.846;2023-04-23T04:45:55;99920;;;
74485;BMP280;62942;52.462;10.846;2023-04-23T04:47:05;99920;;;
74485;BMP280;62942;52.462;10.846;2023-04-23T04:48:05;99920;;;
74485;BMP280;62942;52.462;10.846;2023-04-23T04:49:15;99920;;;
74485;BMP280;62942;52.462;10.846;2023-04-23T04:50:25;99930;;;
74485;BMP280;62942;52.462;10.846;2023-04-23T04:51:35;99930;;;
74485;BMP280;62942;52.462;10.846;2023-04-23T04:52:44;99930;;;
74485;BMP280;62942;52.462;10.846;2023-04-23T04:53:55;99930;;;
74485;BMP280;62942;52.462;10.846;2023-04-23T04:55:05;99930;;;
74485;BMP280;62942;52.462;10.846;2023-04-23T04:56:15;99930;;;
74485;BMP280;62942;52.462;10.846;2023-04-23T04:57:25;99930;;;
74485;BMP280;62942;52.462;10.846;2023-04-23T04:58:34;99930;;;
74485;BMP280;62942;52.462;10.846;2023-04-23T04:59:34;99940;;;
74485;BMP280;62942;52.462;10.846;2023-04-23T05:00:35;99940;;;
74485;BMP280;62942;52.462;10.846;2023-04-23T05:01:45;99930;;;
74485;BMP280;62942;52.462;10.846;2023-04-23T05:02:55;99930;;;
74485;BMP280;62942;52.462;10.846;2023-04-23T05:04:04;99940;;;
74485;BMP280;62942;52.462;10.846;2023-04-23T05:05:15;99940;;;
74485;BMP280;62942;52.462;10.846;2023-04-23T05:06:25;99940;;;
74485;BMP280;62942;52.462;10.846;2023-04-23T05:07:25;99940;;;
74485;BMP280;62942;52.462;10.846;2023-04-23T05:08:25;99940;;;
74485;BMP280;62942;52.462;10.846;2023-04-23T05:09:35;99950;;;
74485;BMP280;62942;52.462;10.846;2023-04-23T05:10:45;99940;;;
74485;BMP280;62942;52.462;10.846;2023-04-23T05:11:45;99930;;;
74485;BMP280;62942;52.462;10.846;2023-04-23T05:12:55;99940;;;
74485;BMP280;62942;52.462;10.846;2023-04-23T05:13:55;99940;;;
74485;BMP280;62942;52.462;10.846;2023-04-23T05:15:05;99950;;;
74485;BMP280;62942;52.462;10.846;2023-04-23T05:16:14;99940;;;
74485;BMP280;62942;52.462;10.846;2023-04-23T05:17:25;99950;;;
74485;BMP280;62942;52.462;10.846;2023-04-23T05:18:34;99950;;;
74485;BMP280;62942;52.462;10.846;2023-04-23T05:19:44;99950;;;
74485;BMP280;62942;52.462;10.846;2023-04-23T05:20:54;99950;;;
74485;BMP280;62942;52.462;10.846;2023-04-23T05:22:04;99950;;;
74485;BMP280;62942;52.462;10.846;2023-04-23T05:23:14;99950;;;
74485;BMP280;62942;52.462;10.846;2023-04-23T05:24:24;99950;;;
74485;BMP280;62942;52.462;10.846;2023-04-23T05:25:34;99950;;;
74485;BMP280;62942;52.462;10.846;2023-04-23T05:26:44;99950;;;
74485;BMP280;62942;52.462;10.846;2023-04-23T05:27:54;99950;;;
74485;BMP280;62942;52.462;10.846;2023-04-23T05:29:04;99950;;;
74485;BMP280;62942;52.462;10.846;2023-04-23T05:30:14;99950;;;
74485;BMP280;62942;52.462;10.846;2023-04-23T05:31:14;99950;;;
74485;BMP280;62942;52.462;10.846;2023-04-23T05:32:14;99960;;;
74485;BMP280;62942;52.462;10.846;2023-04-23T05:33:25;99960;;;
74485;BMP280;62942;52.462;10.846;2023-04-23T05:34:24;99960;;;
74485;BMP280;62942;52.462;10.846;2023-04-23T05:35:34;99950;;;
74485;BMP280;62942;52.462;10.846;2023-04-23T05:36:44;99950;;;
74485;BMP280;62942;52.462;10.846;2023-04-23T05:37:54;99950;;;
74485;BMP280;62942;52.462;10.846;2023-04-23T05:39:04;99940;;;
74485;BMP280;62942;52.462;10.846;2023-04-23T05:40:15;99960;;;
74485;BMP280;62942;52.462;10.846;2023-04-23T05:41:24;99970;;;
74485;BMP280;62942;52.462;10.846;2023-04-23T05:42:35;99970;;;
74485;BMP280;62942;52.462;10.846;2023-04-23T05:43:34;99960;;;
74485;BMP280;62942;52.462;10.846;2023-04-23T05:44:34;99970;;;
74485;BMP280;62942;52.462;10.846;2023-04-23T05:45:44;99960;;;
74485;BMP280;62942;52.462;10.846;2023-04-23T05:46:44;99970;;;
74485;BMP280;62942;52.462;10.846;2023-04-23T05:47:44;99970;;;
74485;BMP280;62942;52.462;10.846;2023-04-23T05:48:54;99970;;;
74485;BMP280;62942;52.462;10.846;2023-04-23T05:49:54;99970;;;
74485;BMP280;62942;52.462;10.846;2023-04-23T05:50:54;99970;;;
74485;BMP280;62942;52.462;10.846;2023-04-23T05:52:04;99980;;;
74485;BMP280;62942;52.462;10.846;2023-04-23T05:53:14;99980;;;
74485;BMP280;62942;52.462;10.846;2023-04-23T05:54:24;99980;;;
74485;BMP280;62942;52.462;10.846;2023-04-23T05:55:34;99970;;;
74485;BMP280;62942;52.462;10.846;2023-04-23T05:56:44;99990;;;
74485;BMP280;62942;52.462;10.846;2023-04-23T05:57:54;99980;;;
74485;BMP280;62942;52.462;10.846;2023-04-23T05:59:04;99980;;;
74485;BMP280;62942;52.462;10.846;2023-04-23T06:00:15;99980;;;
74485;BMP280;62942;52.462;10.846;2023-04-23T06:01:24;99990;;;
74485;BMP280;62942;52.462;10.846;2023-04-23T06:02:24;99980;;;
74485;BMP280;62942;52.462;10.846;2023-04-23T06:03:34;99980;;;
74485;BMP280;62942;52.462;10.846;2023-04-23T06:04:45;99980;;;
74485;BMP280;62942;52.462;10.846;2023-04-23T06:05:54;99980;;;
74485;BMP280;62942;52.462;10.846;2023-04-23T06:07:05;99980;;;
74485;BMP280;62942;52.462;10.846;2023-04-23T06:08:14;99980;;;
74485;BMP280;62942;52.462;10.846;2023-04-23T06:09:24;99990;;;
74485;BMP280;62942;52.462;10.846;2023-04-23T06:10:34;99980;;;
74485;BMP280;62942;52.462;10.846;2023-04-23T06:11:34;99990;;;
74485;BMP280;62942;52.462;10.846;2023-04-23T06:12:34;99990;;;
74485;BMP280;62942;52.462;10.846;2023-04-23T06:13:44;99990;;;
74485;BMP280;62942;52.462;10.846;2023-04-23T06:14:54;100000;;;
74485;BMP280;62942;52.462;10.846;2023-04-23T06:15:54;99990;;;
74485;BMP280;62942;52.462;10.846;2023-04-23T06:17:04;99990;;;
74485;BMP280;62942;52.462;10.846;2023-04-23T06:18:14;99990;;;
74485;BMP280;62942;52.462;10.846;2023-04-23T06:19:24;99990;;;
74485;BMP280;62942;52.462;10.846;2023-04-23T06:20:34;100000;;;
74485;BMP280;62942;52.462;10.846;2023-04-23T06:21:44;100000;;;
74485;BMP280;62942;52.462;10.846;2023-04-23T06:22:44;100000;;;
74485;BMP280;62942;52.462;10.846;2023-04-23T06:23:54;99990;;;
74485;BMP280;62942;52.462;10.846;2023-04-23T06:25:05;100000;;;
74485;BMP280;62942;52.462;10.846;2023-04-23T06:26:15;99990;;;
74485;BMP280;62942;52.462;10.846;2023-04-23T06:27:24;99990;;;
74485;BMP280;62942;52.462;10.846;2023-04-23T06:28:34;100000;;;
74485;BMP280;62942;52.462;10.846;2023-04-23T06:29:34;100000;;;
74485;BMP280;62942;52.462;10.846;2023-04-23T06:30:44;100000;;;
74485;BMP280;62942;52.462;10.846;2023-04-23T06:31:55;100000;;;
74485;BMP280;62942;52.462;10.846;2023-04-23T06:33:04;100000;;;
74485;BMP280;62942;52.462;10.846;2023-04-23T06:34:04;100000;;;
74485;BMP280;62942;52.462;10.846;2023-04-23T06:35:14;100000;;;
74485;BMP280;62942;52.462;10.846;2023-04-23T06:36:14;100000;;;
74485;BMP280;62942;52.462;10.846;2023-04-23T06:37:14;100000;;;
74485;BMP280;62942;52.462;10.846;2023-04-23T06:38:24;100000;;;
74485;BMP280;62942;52.462;10.846;2023-04-23T06:39:35;100000;;;
74485;BMP280;62942;52.462;10.846;2023-04-23T06:40:44;99990;;;
74485;BMP280;62942;52.462;10.846;2023-04-23T06:41:54;99990;;;
74485;BMP280;62942;52.462;10.846;2023-04-23T06:42:54;100000;;;
74485;BMP280;62942;52.462;10.846;2023-04-23T06:44:04;99990;;;
74485;BMP280;62942;52.462;10.846;2023-04-23T06:45:09;99990;;;
74485;BMP280;62942;52.462;10.846;2023-04-23T06:46:14;100000;;;
74485;BMP280;62942;52.462;10.846;2023-04-23T06:47:14;100000;;;
74485;BMP280;62942;52.462;10.846;2023-04-23T06:48:24;100000;;;
74485;BMP280;62942;52.462;10.846;2023-04-23T06:49:34;99990;;;
74485;BMP280;62942;52.462;10.846;2023-04-23T06:50:44;99990;;;
74485;BMP280;62942;52.462;10.846;2023-04-23T06:51:44;99990;;;
74485;BMP280;62942;52.462;10.846;2023-04-23T06:52:54;99980;;;
74485;BMP280;62942;52.462;10.846;2023-04-23T06:54:04;99990;;;
74485;BMP280;62942;52.462;10.846;2023-04-23T06:55:14;99990;;;
74485;BMP280;62942;52.462;10.846;2023-04-23T06:56:24;99980;;;
74485;BMP280;62942;52.462;10.846;2023-04-23T06:57:24;99990;;;
74485;BMP280;62942;52.462;10.846;2023-04-23T06:58:34;100010;;;
74485;BMP280;62942;52.462;10.846;2023-04-23T06:59:44;100000;;;
74485;BMP280;62942;52.462;10.846;2023-04-23T07:00:54;100020;;;
74485;BMP280;62942;52.462;10.846;2023-04-23T07:01:54;100010;;;
74485;BMP280;62942;52.462;10.846;2023-04-23T07:03:04;100010;;;
74485;BMP280;62942;52.462;10.846;2023-04-23T07:04:14;100010;;;
74485;BMP280;62942;52.462;10.846;2023-04-23T07:05:15;100010;;;
74485;BMP280;62942;52.462;10.846;2023-04-23T07:06:24;100010;;;
74485;BMP280;62942;52.462;10.846;2023-04-23T07:07:34;100010;;;